Weather reports worldwide

Advertisment
Monks wood, United Kingdom (99078): temperature & dewpoint: 19.09.2018 07:00:00 - 25.09.2018 07:00:00 (BST)Monks wood, United Kingdom (99078): temperature -20cm & temperature -100cm: 19.09.2018 07:00:00 - 25.09.2018 07:00:00 (BST)Monks wood, United Kingdom (99078): wind speed & gusts: 19.09.2018 07:00:00 - 25.09.2018 07:00:00 (BST)Monks wood, United Kingdom (99078): wind direction: 19.09.2018 07:00:00 - 25.09.2018 07:00:00 (BST)Monks wood, United Kingdom (99078): precipitation: 19.09.2018 07:00:00 - 25.09.2018 07:00:00 (BST)
Date & Time tt [°C] td [°C] tt -20cm [°C] tt -100cm [°C] ff [km/h] ff [kn] fx [km/h] fx [kn] dd rr [mm]
25.09.2018 07:00:00 - - - - - - - - - -
25.09.2018 06:00:00 2,0 2,0 - - 5 3 - - SSW 0,0
25.09.2018 05:00:00 1,7 1,5 - - 2 1 - - SW 0,0
25.09.2018 04:00:00 2,3 2,2 - - 4 2 - - SSW 0,0
25.09.2018 03:00:00 2,6 2,4 - - 2 1 - - W 0,0
25.09.2018 02:00:00 3,0 2,7 - - 4 2 - - SSW 0,0
25.09.2018 01:00:00 3,9 3,1 - - 2 1 - - W 0,0
25.09.2018 00:00:00 4,9 3,6 - - 2 1 - - NNW 0,0
24.09.2018 23:00:00 4,9 3,7 - - 2 1 - - WNW 0,0
24.09.2018 22:00:00 5,3 3,2 - - 2 1 - - SSW 0,0
24.09.2018 21:00:00 8,6 4,7 - - 2 1 - - W 0,0
24.09.2018 20:00:00 8,4 3,6 - - 2 1 - - W 0,0
24.09.2018 19:00:00 11,6 4,6 - - 2 1 - - WNW 0,0
24.09.2018 18:00:00 14,4 2,0 - - 4 2 - - N 0,0
24.09.2018 17:00:00 15,5 1,0 - - 4 2 - - NNW 0,0
24.09.2018 16:00:00 15,7 1,2 - - 5 3 - - NNW 0,0
24.09.2018 15:00:00 15,3 -0,6 - - 5 3 - - N 0,0
24.09.2018 14:00:00 14,5 1,0 - - 5 3 - - N 0,0
24.09.2018 13:00:00 13,6 3,1 - - 8 4 - - NNW 0,0
24.09.2018 12:00:00 13,2 5,1 - - 8 4 - - W 0,0
24.09.2018 11:00:00 12,2 5,1 - - 5 3 - - N 0,0
24.09.2018 10:00:00 10,3 5,1 14,0 15,5 8 4 - - NW 0,0
24.09.2018 09:00:00 8,6 4,7 - - 5 3 - - WNW 0,0
24.09.2018 08:00:00 5,7 3,8 - - 4 2 - - W 0,0
24.09.2018 07:00:00 5,6 3,5 - - 4 2 - - W 0,0
24.09.2018 06:00:00 5,9 3,9 - - 5 3 - - W 0,0
24.09.2018 05:00:00 5,5 4,2 - - 5 3 - - WSW 0,0
24.09.2018 04:00:00 6,1 4,5 - - 5 3 - - WSW 0,0
24.09.2018 03:00:00 6,6 4,7 - - 5 3 - - W 0,0
24.09.2018 02:00:00 6,7 4,6 - - 5 3 - - WSW 0,0
24.09.2018 01:00:00 7,0 4,9 - - 5 3 - - W 0,0
24.09.2018 00:00:00 6,5 4,3 - - 5 3 - - WSW 0,0
23.09.2018 23:00:00 7,1 4,6 - - 4 2 - - W 0,0
23.09.2018 22:00:00 7,7 4,8 - - 4 2 - - W 0,0
23.09.2018 21:00:00 8,4 5,4 - - 4 2 - - W 0,0
23.09.2018 20:00:00 8,3 5,1 - - 4 2 - - N 0,0
23.09.2018 19:00:00 9,2 5,0 - - 2 1 - - N 0,0
23.09.2018 18:00:00 11,1 5,2 - - 8 4 - - NNE 0,0
23.09.2018 17:00:00 12,9 4,4 - - 11 6 - - N 0,0
23.09.2018 16:00:00 13,1 3,6 - - 11 6 - - N 0,0
23.09.2018 15:00:00 12,3 3,3 - - 11 6 - - N 0,0
23.09.2018 14:00:00 11,4 5,6 - - 8 4 - - NW 0,0
23.09.2018 13:00:00 10,7 7,3 - - 8 4 - - WNW 0,0
23.09.2018 12:00:00 9,6 8,4 - - 4 2 - - WNW 0,2
23.09.2018 11:00:00 8,1 7,3 - - 4 2 - - N 0,4
23.09.2018 10:00:00 7,9 7,4 14,9 15,7 4 2 - - NNW 1,2
23.09.2018 09:00:00 8,2 7,6 - - 4 2 - - N 2,0
23.09.2018 08:00:00 8,9 8,4 - - 4 2 - - N 0,6
23.09.2018 07:00:00 8,7 8,2 - - 2 1 - - NNE 0,0
23.09.2018 06:00:00 8,8 8,1 - - 4 2 - - N 0,0
23.09.2018 05:00:00 8,8 8,5 - - 2 1 - - N 0,0
23.09.2018 04:00:00 8,7 8,2 - - 2 1 - - N 0,0
23.09.2018 03:00:00 9,0 8,5 - - 2 1 - - N 0,0
23.09.2018 02:00:00 9,2 8,5 - - 2 1 - - NNE 0,0
23.09.2018 01:00:00 9,2 8,7 - - 4 2 - - NNE 0,0
23.09.2018 00:00:00 9,3 8,8 - - 4 2 - - NNE 0,0
22.09.2018 23:00:00 9,3 8,6 - - 2 1 - - NE 0,0
22.09.2018 22:00:00 9,3 8,7 - - 2 1 - - NNE 0,0
22.09.2018 21:00:00 9,4 8,6 - - 2 1 - - E 0,0
22.09.2018 20:00:00 9,2 8,3 - - 2 1 - - ESE 0,0
22.09.2018 19:00:00 9,9 8,0 - - 2 1 - - SSE 0,0
22.09.2018 18:00:00 10,2 8,6 - - 4 2 - - S 0,2
22.09.2018 17:00:00 10,8 8,4 - - 8 4 - - SSW 0,2
22.09.2018 16:00:00 11,3 8,7 - - 9 5 - - SSW 0,0
22.09.2018 15:00:00 11,8 8,6 - - 13 7 - - SW 0,2
22.09.2018 14:00:00 12,7 8,5 - - 16 9 - - WSW 0,2
22.09.2018 13:00:00 13,2 8,8 - - 13 7 - - SW 0,0
22.09.2018 12:00:00 13,1 8,8 - - 15 8 - - WSW 0,0
22.09.2018 11:00:00 12,1 8,8 - - 11 6 - - WSW 0,0
22.09.2018 10:00:00 11,8 8,8 15,0 15,7 11 6 - - WSW 0,0
22.09.2018 09:00:00 10,8 8,8 - - 11 6 - - SW 0,0
22.09.2018 08:00:00 9,7 8,6 - - 11 6 - - SW 0,0
22.09.2018 07:00:00 9,3 7,9 - - 11 6 - - WSW 0,0
22.09.2018 06:00:00 9,0 7,5 - - 9 5 - - SW 0,0
22.09.2018 05:00:00 9,2 7,6 - - 11 6 - - SW 0,0
22.09.2018 04:00:00 9,4 7,4 - - 11 6 - - SW 0,0
22.09.2018 03:00:00 9,2 7,1 - - 11 6 - - SW 0,0
22.09.2018 02:00:00 8,9 6,6 - - 11 6 - - SW 0,0
22.09.2018 01:00:00 9,2 6,6 - - 11 6 - - SW 0,0
22.09.2018 00:00:00 9,7 7,0 - - 9 5 - - WSW 0,0
21.09.2018 23:00:00 9,4 6,2 - - 11 6 - - SW 0,0
21.09.2018 22:00:00 10,0 4,9 - - 8 4 - - SW 0,0
21.09.2018 21:00:00 11,8 5,9 - - 11 6 - - WSW 0,0
21.09.2018 20:00:00 12,8 5,7 - - 15 8 - - WSW 0,0
21.09.2018 19:00:00 13,9 5,5 - - 16 9 - - WSW 0,0
21.09.2018 18:00:00 14,6 5,9 - - 15 8 - - WSW 0,0
21.09.2018 17:00:00 14,9 5,6 - - 24 13 52 28 WSW 0,0
21.09.2018 16:00:00 14,7 6,1 - - 26 14 54 29 WSW 0,0
21.09.2018 15:00:00 14,4 6,8 - - 26 14 50 27 WSW 0,0
21.09.2018 14:00:00 15,1 6,7 - - 28 15 57 31 WSW 0,0
21.09.2018 13:00:00 12,4 6,3 - - 18 10 52 28 WSW 0,0
21.09.2018 12:00:00 14,0 5,4 - - 31 17 57 31 WSW 0,0
21.09.2018 11:00:00 13,0 5,6 - - 28 15 57 31 WSW 0,0
21.09.2018 10:00:00 12,3 6,3 16,0 15,7 26 14 48 26 WSW 0,0
21.09.2018 09:00:00 10,9 6,2 - - 24 13 - - WSW 0,0
21.09.2018 08:00:00 9,6 5,8 - - 21 11 - - WSW 0,0
21.09.2018 07:00:00 9,7 5,8 - - 18 10 - - WSW 0,0
21.09.2018 06:00:00 10,0 6,8 - - 21 11 - - WSW 0,0
21.09.2018 05:00:00 11,1 7,6 - - 15 8 57 31 WSW 0,0
21.09.2018 04:00:00 13,5 9,7 - - 29 16 59 32 WSW 0,0
21.09.2018 03:00:00 14,4 10,1 - - 35 19 63 34 WSW 0,2
21.09.2018 02:00:00 17,1 15,3 - - 29 16 67 36 SW 0,2
21.09.2018 01:00:00 17,1 15,8 - - 34 18 65 35 SSW 0,6
21.09.2018 00:00:00 17,8 15,2 - - 34 18 55 30 SSW 0,2
20.09.2018 23:00:00 17,5 15,4 - - 31 17 54 29 SSW 0,4
20.09.2018 22:00:00 18,7 14,4 - - 26 14 50 27 SSW 0,0
20.09.2018 21:00:00 18,5 14,1 - - 26 14 54 29 SSW 0,0
20.09.2018 20:00:00 18,5 13,7 - - 28 15 48 26 SSW 0,0
20.09.2018 19:00:00 19,0 13,6 - - 29 16 55 30 SSW 0,0
20.09.2018 18:00:00 19,2 13,5 - - 31 17 61 33 SSW 0,0
20.09.2018 17:00:00 19,6 13,8 - - 35 19 59 32 SSW 0,0
20.09.2018 16:00:00 19,7 14,7 - - 29 16 50 27 SSW 0,0
20.09.2018 15:00:00 18,5 15,3 - - 26 14 46 25 SSW 0,0
20.09.2018 14:00:00 18,3 16,2 - - 21 11 - - SSW 0,0
20.09.2018 13:00:00 16,4 16,2 - - 8 4 - - S 0,0
20.09.2018 12:00:00 14,4 14,3 - - 5 3 - - SSE 0,4
20.09.2018 11:00:00 13,9 13,8 - - 4 2 - - S 0,4
20.09.2018 10:00:00 13,2 13,2 16,0 15,7 4 2 - - SE 1,6
20.09.2018 09:00:00 12,5 12,5 - - 2 1 - - E 1,6
20.09.2018 08:00:00 12,1 12,0 - - 2 1 - - NE 2,0
20.09.2018 07:00:00 12,1 12,1 - - 4 2 - - ESE 0,2
20.09.2018 06:00:00 12,1 11,9 - - 2 1 - - SSW 0,4
20.09.2018 05:00:00 12,0 11,7 - - 4 2 - - W 1,4
20.09.2018 04:00:00 12,4 12,0 - - 8 4 - - WSW 0,4
20.09.2018 03:00:00 12,6 12,1 - - 8 4 - - SW 0,0
20.09.2018 02:00:00 12,9 11,8 - - 9 5 - - WSW 0,2
20.09.2018 01:00:00 13,4 11,2 - - 13 7 - - SW 0,0
20.09.2018 00:00:00 14,5 10,4 - - 11 6 - - SW 0,0
19.09.2018 23:00:00 15,6 9,3 - - 15 8 - - WSW 0,0
19.09.2018 22:00:00 16,2 10,4 - - 16 9 - - WSW 0,0
19.09.2018 21:00:00 16,7 10,4 - - 24 13 - - WSW 0,0
19.09.2018 20:00:00 17,4 13,2 - - 22 12 - - WSW 0,0
19.09.2018 19:00:00 17,6 14,8 - - 24 13 54 29 WSW 0,4
19.09.2018 18:00:00 20,4 14,1 - - 29 16 54 29 SW 0,0
19.09.2018 17:00:00 21,8 12,4 - - 34 18 67 36 SW 0,0
19.09.2018 16:00:00 22,4 12,4 - - 34 18 61 33 SW 0,0
19.09.2018 15:00:00 23,7 11,8 - - 37 20 65 35 SW 0,0
19.09.2018 14:00:00 24,2 12,0 - - 39 21 72 39 SW 0,0
19.09.2018 13:00:00 23,7 11,6 - - 39 21 65 35 SW 0,0
19.09.2018 12:00:00 21,8 13,1 - - 35 19 67 36 SW 0,0
19.09.2018 11:00:00 21,3 13,6 - - 35 19 61 33 SW 0,0
19.09.2018 10:00:00 19,6 13,5 16,0 15,7 34 18 54 29 SSW 0,0
19.09.2018 09:00:00 17,9 13,9 - - 24 13 - - SSW 0,0
19.09.2018 08:00:00 17,1 14,2 - - 22 12 - - SSW 0,0
19.09.2018 07:00:00 16,5 14,7 - - 15 8 - - SSW 0,0

tt = temperature
td = dewpoint
tt -20cm = temperature -20cm
tt -100cm = temperature -100cm
ff = wind speed
fx = gusts
dd = wind direction
rr = precipitation

Next stations